Time;durP1;ratioP1;P1;durP2;ratioP2;P2;SDS_P1;SDS_P2;PMS_P1;PMS_P2;Temp;Humidity;BMP_temperature;BMP_pressure;BME280_temperature;BME280_humidity;BME280_pressure;Samples;Min_cycle;Max_cycle;Signal;HPM_P1;HPM_P2
2022/11/18 00:02:38;;;;;;;1.70;1.27;;;;;;;8.05;100.00;153427.47;4976109;28;20479;-77
2022/11/18 00:05:23;;;;;;;4.83;1.70;;;;;;;8.06;100.00;153430.06;4983088;28;20452;-77
2022/11/18 00:08:09;;;;;;;2.00;1.33;;;;;;;8.06;100.00;153430.06;4993406;28;21027;-77
2022/11/18 00:10:54;;;;;;;1.90;1.10;;;;;;;8.09;100.00;153437.81;4994430;28;20625;-77
2022/11/18 00:16:44;;;;;;;1.90;1.30;;;;;;;8.05;100.00;153426.22;4987003;28;20461;-77
2022/11/18 00:19:31;;;;;;;2.23;1.63;;;;;;;8.08;100.00;153435.22;4960436;28;20414;-77
2022/11/18 00:22:16;;;;;;;2.50;1.50;;;;;;;8.13;100.00;153448.13;4986873;28;20605;-77
2022/11/18 00:25:01;;;;;;;2.50;1.10;;;;;;;8.09;100.00;153437.81;4993956;28;20987;-77
2022/11/18 00:27:47;;;;;;;1.43;1.17;;;;;;;8.09;100.00;153437.81;4993433;28;20437;-77
2022/11/18 00:30:34;;;;;;;1.20;1.00;;;;;;;8.07;100.00;153431.38;4988100;28;20499;-77
2022/11/18 00:33:19;;;;;;;2.80;1.23;;;;;;;8.10;100.00;153440.38;4993433;28;20492;-77
2022/11/18 00:36:05;;;;;;;1.97;1.43;;;;;;;8.12;100.00;153444.28;4978839;28;20557;-77
2022/11/18 00:38:51;;;;;;;2.10;1.50;;;;;;;8.13;100.00;153448.13;4990201;28;20943;-77
2022/11/18 00:44:39;;;;;;;1.27;0.87;;;;;;;8.13;100.00;153448.13;4986451;28;20419;-77
2022/11/18 00:47:25;;;;;;;2.10;0.90;;;;;;;8.17;100.00;153457.19;4990740;28;20529;-77
2022/11/18 00:50:11;;;;;;;1.63;0.97;;;;;;;8.10;100.00;153440.38;4991234;28;20460;-77
2022/11/18 00:52:57;;;;;;;0.97;0.70;;;;;;;8.13;100.00;153448.13;4993938;28;20417;-77
2022/11/18 00:55:42;;;;;;;1.57;0.80;;;;;;;8.07;100.00;153432.66;4992088;28;20448;-77
2022/11/18 00:58:28;;;;;;;1.13;0.77;;;;;;;8.07;100.00;153432.66;4990860;28;21149;-78
2022/11/18 01:01:14;;;;;;;1.50;0.80;;;;;;;8.06;100.00;153430.06;4979147;28;20476;-77
2022/11/18 01:04:00;;;;;;;1.10;0.70;;;;;;;8.11;100.00;153443.00;4989600;28;20437;-78
2022/11/18 01:06:46;;;;;;;1.50;0.90;;;;;;;8.05;100.00;153427.47;4987785;28;20940;-77
2022/11/18 01:09:31;;;;;;;2.40;0.80;;;;;;;8.10;100.00;153440.38;4978950;28;20432;-78
2022/11/18 01:15:19;;;;;;;1.13;0.60;;;;;;;8.04;100.00;153424.91;4991460;28;20449;-77
2022/11/18 01:18:04;;;;;;;0.90;0.40;;;;;;;8.08;100.00;153433.94;4990980;28;20508;-77
2022/11/18 01:20:51;;;;;;;0.73;0.37;;;;;;;8.02;100.00;153419.75;4993746;28;20515;-77
2022/11/18 01:23:36;;;;;;;1.67;0.60;;;;;;;8.05;100.00;153427.47;4993750;28;20499;-77
2022/11/18 01:26:22;;;;;;;1.10;0.70;;;;;;;8.06;100.00;153430.06;4986800;28;20955;-77
2022/11/18 01:29:07;;;;;;;1.40;0.50;;;;;;;8.09;100.00;153437.81;4977027;28;20445;-77
2022/11/18 01:31:52;;;;;;;1.13;0.60;;;;;;;8.02;100.00;153419.75;4986850;28;20523;-78
2022/11/18 01:34:38;;;;;;;0.90;0.37;;;;;;;8.01;100.00;153417.16;4992576;28;20456;-78
2022/11/18 01:37:24;;;;;;;1.50;0.60;;;;;;;8.02;100.00;153419.75;4992557;28;20460;-77
2022/11/18 01:40:11;;;;;;;1.10;0.40;;;;;;;8.03;100.00;153421.00;4985601;28;20437;-77
2022/11/18 01:42:56;;;;;;;1.10;0.50;;;;;;;8.02;100.00;153418.44;4992668;28;20453;-78
2022/11/18 01:45:43;;;;;;;2.33;0.50;;;;;;;8.04;100.00;153424.91;4973750;28;20497;-78
2022/11/18 01:48:32;;;;;;;3.70;0.60;;;;;;;8.04;100.00;153424.91;4973696;28;20438;-77
2022/11/18 01:51:20;;;;;;;0.80;0.43;;;;;;;8.06;100.00;153430.06;4991797;28;20475;-77
2022/11/18 01:54:09;;;;;;;1.20;0.50;;;;;;;8.03;100.00;153422.31;4992731;28;20544;-77
2022/11/18 01:56:57;;;;;;;0.90;0.30;;;;;;;8.03;100.00;153422.31;4993328;28;20934;-77
2022/11/18 01:59:44;;;;;;;1.13;0.60;;;;;;;8.03;100.00;153422.31;4995867;28;20468;-77
2022/11/18 02:02:31;;;;;;;2.07;0.67;;;;;;;8.05;100.00;153426.22;4988571;28;20456;-77
2022/11/18 02:05:16;;;;;;;1.53;0.70;;;;;;;8.02;100.00;153419.75;4967253;28;20441;-77
2022/11/18 02:08:03;;;;;;;1.40;0.53;;;;;;;8.05;100.00;153427.47;4988900;28;20453;-77
2022/11/18 02:10:49;;;;;;;0.90;0.40;;;;;;;8.04;100.00;153424.91;4978182;28;20484;-77
2022/11/18 02:13:35;;;;;;;0.90;0.47;;;;;;;8.05;100.00;153426.22;4996909;28;20444;-77
2022/11/18 02:16:23;;;;;;;1.00;0.40;;;;;;;8.06;100.00;153430.06;4995493;28;20468;-78
2022/11/18 02:19:20;;;;;;;1.33;0.60;;;;;;;8.07;100.00;153432.66;4985096;28;20572;-77
2022/11/18 02:22:14;;;;;;;3.07;0.60;;;;;;;8.08;100.00;153433.94;4994722;28;20815;-77
2022/11/18 02:25:05;;;;;;;1.07;0.40;;;;;;;8.06;100.00;153430.06;4994707;28;20429;-77
2022/11/18 02:28:21;;;;;;;1.00;0.40;;;;;;;8.08;100.00;153433.94;4995237;28;20449;-77
2022/11/18 02:31:15;;;;;;;3.63;0.50;;;;;;;8.05;100.00;153426.22;4985394;28;20484;-77
2022/11/18 02:34:04;;;;;;;1.73;0.40;;;;;;;8.02;100.00;153418.44;4995104;28;20801;-77
2022/11/18 02:36:55;;;;;;;0.83;0.33;;;;;;;8.01;100.00;153417.16;4994909;28;20452;-77
2022/11/18 02:39:46;;;;;;;1.53;0.40;;;;;;;8.01;100.00;153417.16;4992013;28;20749;-77
2022/11/18 02:42:33;;;;;;;0.80;0.33;;;;;;;8.03;100.00;153422.31;4978885;28;20779;-77
2022/11/18 02:45:19;;;;;;;2.57;0.60;;;;;;;8.04;100.00;153424.91;4995013;28;21027;-77
2022/11/18 02:48:08;;;;;;;1.20;0.50;;;;;;;8.06;100.00;153430.06;4995579;28;20448;-77
2022/11/18 02:50:54;;;;;;;0.80;0.40;;;;;;;8.04;100.00;153424.91;4995840;28;20476;-77
2022/11/18 02:53:40;;;;;;;0.87;0.47;;;;;;;8.05;100.00;153426.22;4994579;28;20540;-77
2022/11/18 02:56:26;;;;;;;1.40;0.60;;;;;;;8.02;100.00;153419.75;4990478;28;20925;-77
2022/11/18 02:59:12;;;;;;;1.60;0.70;;;;;;;8.03;100.00;153422.31;4986584;28;20561;-77
2022/11/18 03:01:57;;;;;;;2.13;0.60;;;;;;;8.03;100.00;153422.31;4994899;28;20464;-77
2022/11/18 03:04:44;;;;;;;0.70;0.27;;;;;;;8.02;100.00;153419.75;4989845;28;20448;-77
2022/11/18 03:07:31;;;;;;;1.30;0.37;;;;;;;8.03;100.00;153422.31;4983746;28;20451;-77
2022/11/18 03:10:19;;;;;;;1.63;0.33;;;;;;;8.04;100.00;153423.63;4975199;28;20413;-77
2022/11/18 03:13:07;;;;;;;0.90;0.40;;;;;;;8.04;100.00;153424.91;4995206;28;20412;-77
2022/11/18 03:15:56;;;;;;;0.90;0.30;;;;;;;8.01;100.00;153417.16;4983481;28;20453;-77
2022/11/18 03:18:46;;;;;;;0.70;0.30;;;;;;;8.03;100.00;153422.31;4976783;28;20406;-77
2022/11/18 03:21:35;;;;;;;1.53;0.37;;;;;;;8.01;100.00;153417.16;4992908;28;20584;-77
2022/11/18 03:24:22;;;;;;;1.00;0.40;;;;;;;8.00;100.00;153414.53;4985756;28;20562;-76
2022/11/18 03:27:12;;;;;;;0.90;0.30;;;;;;;8.00;100.00;153414.53;4975048;28;20440;-77
2022/11/18 03:30:02;;;;;;;2.80;0.33;;;;;;;7.97;100.00;153406.78;4986856;28;20449;-77
2022/11/18 03:32:52;;;;;;;0.70;0.30;;;;;;;7.97;100.00;153406.78;4987935;28;20470;-77
2022/11/18 03:35:39;;;;;;;1.30;0.60;;;;;;;7.99;100.00;153413.25;4976707;28;20438;-77
2022/11/18 03:38:29;;;;;;;1.00;0.40;;;;;;;8.01;100.00;153415.84;4992116;28;20448;-77
2022/11/18 03:41:15;;;;;;;1.47;0.40;;;;;;;7.99;100.00;153412.00;4992828;28;20457;-77
2022/11/18 03:44:05;;;;;;;1.00;0.40;;;;;;;7.95;100.00;153402.94;4976025;28;20430;-77
2022/11/18 03:46:55;;;;;;;1.37;0.40;;;;;;;7.94;100.00;153399.09;4976054;28;20449;-77
2022/11/18 03:49:43;;;;;;;0.73;0.30;;;;;;;7.94;100.00;153400.34;4994025;28;20445;-77
2022/11/18 03:52:31;;;;;;;4.10;0.50;;;;;;;7.94;100.00;153399.09;4991253;28;20459;-76
2022/11/18 03:55:22;;;;;;;1.47;0.40;;;;;;;7.92;100.00;153395.19;4983278;28;20511;-77
2022/11/18 03:58:10;;;;;;;3.10;0.40;;;;;;;7.90;100.00;153390.03;4991030;28;20444;-76
2022/11/18 04:01:00;;;;;;;1.90;0.80;;;;;;;7.88;100.00;153383.56;4990745;28;20492;-77
2022/11/18 04:03:45;;;;;;;0.83;0.33;;;;;;;7.88;100.00;153383.56;4987272;28;20782;-76
2022/11/18 04:06:36;;;;;;;0.70;0.37;;;;;;;7.84;100.00;153373.19;4987322;28;20488;-76
2022/11/18 04:09:24;;;;;;;0.80;0.30;;;;;;;7.85;100.00;153377.09;4992678;28;20445;-76
2022/11/18 04:12:13;;;;;;;0.70;0.40;;;;;;;7.84;100.00;153373.19;4990190;28;20547;-76
2022/11/18 04:14:59;;;;;;;0.90;0.37;;;;;;;7.84;100.00;153373.19;4993763;28;20504;-76
2022/11/18 04:17:44;;;;;;;1.13;0.40;;;;;;;7.83;100.00;153371.94;4992103;28;20448;-77
2022/11/18 04:20:32;;;;;;;0.70;0.20;;;;;;;7.80;100.00;153362.88;4973782;28;20486;-76
2022/11/18 04:23:17;;;;;;;0.90;0.30;;;;;;;7.78;100.00;153357.72;4975842;28;20431;-77
2022/11/18 04:26:02;;;;;;;0.97;0.37;;;;;;;7.75;100.00;153349.97;4994280;28;20463;-76
2022/11/18 04:28:49;;;;;;;1.90;0.80;;;;;;;7.73;100.00;153346.06;4992731;28;20425;-77
2022/11/18 04:31:35;;;;;;;0.70;0.30;;;;;;;7.73;100.00;153344.81;4994030;28;21007;-77
2022/11/18 04:34:20;;;;;;;1.10;0.40;;;;;;;7.73;100.00;153344.81;4971556;28;20931;-76
2022/11/18 04:37:05;;;;;;;0.97;0.43;;;;;;;7.70;100.00;153337.06;4972243;28;20473;-76
2022/11/18 04:39:51;;;;;;;0.97;0.37;;;;;;;7.68;100.00;153331.84;4973523;28;21041;-76
2022/11/18 04:42:36;;;;;;;1.07;0.30;;;;;;;7.64;100.00;153321.56;4969025;28;20990;-76
2022/11/18 04:45:23;;;;;;;2.20;0.30;;;;;;;7.59;100.00;153308.63;4968790;28;20453;-76
2022/11/18 04:48:08;;;;;;;0.80;0.30;;;;;;;7.61;100.00;153313.78;4959575;28;20445;-77
2022/11/18 04:50:56;;;;;;;0.90;0.40;;;;;;;7.60;100.00;153311.25;4967395;28;20855;-76
2022/11/18 04:53:41;;;;;;;1.10;0.50;;;;;;;7.58;100.00;153306.03;4957131;28;20463;-77
2022/11/18 04:56:27;;;;;;;0.83;0.27;;;;;;;7.57;100.00;153304.72;4973238;28;20489;-76
2022/11/18 04:59:13;;;;;;;1.53;0.20;;;;;;;7.57;100.00;153303.47;4957758;28;20489;-76
2022/11/18 05:02:00;;;;;;;2.77;0.40;;;;;;;7.56;100.00;153302.19;4973832;28;20454;-76
2022/11/18 05:04:45;;;;;;;1.90;0.53;;;;;;;7.53;100.00;153294.44;4968399;28;20477;-76
2022/11/18 05:07:30;;;;;;;1.40;0.60;;;;;;;7.51;100.00;153287.97;4966647;28;20512;-76
2022/11/18 05:10:16;;;;;;;0.90;0.30;;;;;;;7.48;100.00;153280.22;4973813;28;20929;-76
2022/11/18 05:13:01;;;;;;;0.70;0.30;;;;;;;7.50;100.00;153285.38;4973144;28;20474;-76
2022/11/18 05:15:46;;;;;;;0.70;0.20;;;;;;;7.48;100.00;153280.22;4973338;28;20997;-77
2022/11/18 05:18:33;;;;;;;0.80;0.33;;;;;;;7.47;100.00;153278.91;4973563;28;20437;-76
2022/11/18 05:21:18;;;;;;;1.17;0.40;;;;;;;7.44;100.00;153271.16;4972521;28;20457;-76
2022/11/18 05:24:05;;;;;;;1.00;0.30;;;;;;;7.49;100.00;153282.81;4955266;28;20518;-76
2022/11/18 05:26:51;;;;;;;0.90;0.30;;;;;;;7.46;100.00;153275.06;4974601;28;20895;-76
2022/11/18 05:29:36;;;;;;;1.50;0.30;;;;;;;7.34;100.00;153246.63;4974100;28;20442;-77
2022/11/18 05:32:22;;;;;;;1.73;0.40;;;;;;;7.36;100.00;153251.78;4971380;28;20482;-76
2022/11/18 05:35:09;;;;;;;0.83;0.20;;;;;;;7.30;100.00;153236.34;4994528;28;20467;-76
2022/11/18 05:37:54;;;;;;;0.80;0.30;;;;;;;7.30;100.00;153236.34;4990917;28;20460;-76
2022/11/18 05:40:42;;;;;;;0.90;0.37;;;;;;;7.31;100.00;153238.88;4995399;28;20468;-76
2022/11/18 05:43:27;;;;;;;0.90;0.40;;;;;;;7.30;100.00;153235.03;4988567;28;20524;-76
2022/11/18 05:46:12;;;;;;;1.90;0.43;;;;;;;7.31;100.00;153238.88;4997376;28;20433;-76
2022/11/18 05:48:57;;;;;;;1.97;0.60;;;;;;;7.34;100.00;153245.34;4996231;28;20456;-76
2022/11/18 05:51:44;;;;;;;0.80;0.40;;;;;;;7.36;100.00;153251.78;4985545;28;20519;-76
2022/11/18 05:54:29;;;;;;;1.57;0.90;;;;;;;7.31;100.00;153238.88;5005488;28;20436;-77
2022/11/18 05:57:15;;;;;;;1.53;0.60;;;;;;;7.29;100.00;153233.72;4996057;28;20579;-76
2022/11/18 06:00:00;;;;;;;1.30;0.60;;;;;;;7.33;100.00;153244.03;4988876;28;20437;-76
2022/11/18 06:02:46;;;;;;;1.23;0.40;;;;;;;7.28;100.00;153231.13;4993801;28;20437;-76
2022/11/18 06:05:31;;;;;;;1.40;0.53;;;;;;;7.28;100.00;153231.13;4997715;28;20437;-76
2022/11/18 06:08:18;;;;;;;2.03;0.37;;;;;;;7.27;100.00;153228.56;4994493;28;21023;-76
2022/11/18 06:11:05;;;;;;;1.47;0.40;;;;;;;7.26;100.00;153225.97;4992006;28;20543;-77
2022/11/18 06:13:53;;;;;;;0.70;0.27;;;;;;;7.25;100.00;153222.13;4996959;28;20456;-76
2022/11/18 06:16:40;;;;;;;1.00;0.40;;;;;;;7.23;100.00;153218.22;4995875;28;20461;-76
2022/11/18 06:19:26;;;;;;;1.00;0.33;;;;;;;7.20;100.00;153210.47;4981953;28;20445;-76
2022/11/18 06:22:11;;;;;;;0.90;0.40;;;;;;;7.23;100.00;153218.22;4989147;28;20650;-76
2022/11/18 06:25:00;;;;;;;2.83;1.80;;;;;;;7.18;100.00;153205.31;4991593;28;20500;-76
2022/11/18 06:27:46;;;;;;;2.10;1.20;;;;;;;7.19;100.00;153206.63;4992260;28;20464;-76
2022/11/18 06:30:31;;;;;;;2.13;1.00;;;;;;;7.18;100.00;153205.31;4973525;28;20583;-76
2022/11/18 06:33:17;;;;;;;2.00;1.10;;;;;;;7.24;100.00;153220.81;4975844;28;20497;-76
2022/11/18 06:36:04;;;;;;;5.77;3.43;;;;;;;7.19;100.00;153207.91;4985576;28;20466;-76
2022/11/18 06:38:50;;;;;;;3.13;2.50;;;;;;;7.21;100.00;153211.78;4977479;28;20510;-76
2022/11/18 06:41:37;;;;;;;2.63;1.70;;;;;;;7.21;100.00;153211.78;4972776;28;20444;-76
2022/11/18 06:44:22;;;;;;;1.50;1.00;;;;;;;7.24;100.00;153219.53;4990893;28;20436;-77
2022/11/18 06:47:07;;;;;;;1.93;1.37;;;;;;;7.15;100.00;153197.56;4991565;28;20971;-76
2022/11/18 06:49:53;;;;;;;1.30;0.97;;;;;;;7.16;100.00;153198.84;4987700;28;20932;-76
2022/11/18 06:52:38;;;;;;;1.57;1.17;;;;;;;7.18;100.00;153205.31;4986324;28;20461;-76
2022/11/18 06:55:24;;;;;;;1.50;0.90;;;;;;;7.21;100.00;153213.06;4990375;28;20438;-76
2022/11/18 06:58:10;;;;;;;1.60;1.00;;;;;;;7.21;100.00;153211.78;4976461;28;20402;-76
2022/11/18 07:00:56;;;;;;;1.60;1.00;;;;;;;7.22;100.00;153214.38;4987090;28;20505;-76
2022/11/18 07:03:42;;;;;;;2.00;1.07;;;;;;;7.24;100.00;153220.81;4980909;28;20468;-76
2022/11/18 07:06:29;;;;;;;1.80;0.90;;;;;;;7.23;100.00;153216.91;4995491;28;20480;-76
2022/11/18 07:09:16;;;;;;;1.30;0.70;;;;;;;7.26;100.00;153224.66;4995429;28;20444;-76
2022/11/18 07:12:01;;;;;;;1.20;0.70;;;;;;;7.20;100.00;153210.47;4989752;28;20480;-76
2022/11/18 07:14:48;;;;;;;3.53;0.70;;;;;;;7.26;100.00;153225.97;4981980;28;20414;-76
2022/11/18 07:17:33;;;;;;;1.10;0.60;;;;;;;7.26;100.00;153224.66;4995120;28;20461;-77
2022/11/18 07:20:19;;;;;;;1.63;0.63;;;;;;;7.23;100.00;153216.91;4992882;28;20440;-76
2022/11/18 07:23:05;;;;;;;1.10;0.50;;;;;;;7.25;100.00;153223.38;4962918;28;20558;-77
2022/11/18 07:25:54;;;;;;;1.40;0.70;;;;;;;7.27;100.00;153228.56;4962639;28;20430;-82
2022/11/18 07:28:39;;;;;;;1.00;0.40;;;;;;;7.28;100.00;153231.13;4984950;28;20794;-76
2022/11/18 07:31:26;;;;;;;1.33;0.80;;;;;;;7.27;100.00;153227.28;4992097;28;20539;-76
2022/11/18 07:34:12;;;;;;;0.93;0.57;;;;;;;7.26;100.00;153225.97;4987562;28;20417;-76
2022/11/18 07:37:00;;;;;;;1.00;0.63;;;;;;;7.29;100.00;153233.72;4971812;28;20449;-76
2022/11/18 07:39:45;;;;;;;2.47;0.70;;;;;;;7.30;100.00;153235.03;4978779;28;20437;-76
2022/11/18 07:42:41;;;;;;;1.40;1.00;;;;;;;7.31;100.00;153237.59;4979847;28;20457;-76
2022/11/18 07:45:42;;;;;;;2.23;0.80;;;;;;;7.36;100.00;153250.50;4986964;28;20489;-77
2022/11/18 07:48:29;;;;;;;1.43;0.90;;;;;;;7.32;100.00;153241.47;4992553;28;20770;-77
2022/11/18 07:51:16;;;;;;;2.60;1.60;;;;;;;7.34;100.00;153246.63;4994370;28;20482;-77
2022/11/18 07:54:02;;;;;;;1.77;1.00;;;;;;;7.36;100.00;153251.78;4978280;28;20471;-76
2022/11/18 07:56:47;;;;;;;1.70;1.30;;;;;;;7.39;100.00;153258.25;4992200;28;20528;-77
2022/11/18 07:59:32;;;;;;;1.47;1.30;;;;;;;7.42;100.00;153266.00;4991955;28;20416;-76
2022/11/18 08:02:18;;;;;;;1.10;0.77;;;;;;;7.49;100.00;153282.81;4985042;28;20481;-76
2022/11/18 08:05:06;;;;;;;3.10;0.73;;;;;;;7.51;100.00;153287.97;4977935;28;20544;-77
2022/11/18 08:07:51;;;;;;;1.23;0.90;;;;;;;7.54;100.00;153295.72;4979508;28;20413;-77
2022/11/18 08:10:36;;;;;;;1.87;0.90;;;;;;;7.53;100.00;153294.44;4986594;28;21064;-77
2022/11/18 08:13:22;;;;;;;1.10;0.70;;;;;;;7.57;100.00;153303.47;4984593;28;20592;-76
2022/11/18 08:16:12;;;;;;;0.97;0.40;;;;;;;7.64;100.00;153321.56;4983456;28;20457;-76
2022/11/18 08:18:59;;;;;;;1.63;0.80;;;;;;;7.57;100.00;153303.47;4986245;28;20461;-76
2022/11/18 08:21:46;;;;;;;1.40;0.80;;;;;;;7.58;100.00;153307.34;4990983;28;20457;-77
2022/11/18 08:24:31;;;;;;;1.17;0.77;;;;;;;7.60;100.00;153312.50;4970140;28;20965;-77
2022/11/18 08:27:17;;;;;;;1.07;0.70;;;;;;;7.61;100.00;153315.09;4983141;28;20436;-77
2022/11/18 08:30:02;;;;;;;1.47;0.70;;;;;;;7.59;100.00;153309.94;4993472;28;20520;-77
2022/11/18 08:32:48;;;;;;;1.10;0.50;;;;;;;7.63;100.00;153318.94;4992660;28;20990;-77
2022/11/18 08:35:33;;;;;;;1.40;0.80;;;;;;;7.63;100.00;153320.25;4990718;28;20440;-77
2022/11/18 08:38:20;;;;;;;1.13;0.50;;;;;;;7.62;100.00;153316.41;4993433;28;20437;-77
2022/11/18 08:41:06;;;;;;;4.27;0.70;;;;;;;7.66;100.00;153326.72;4983282;28;20511;-76
2022/11/18 08:43:55;;;;;;;1.40;0.60;;;;;;;7.67;100.00;153329.31;4976457;28;20468;-77
2022/11/18 08:46:40;;;;;;;1.20;0.63;;;;;;;7.69;100.00;153335.75;4970222;28;20486;-89
2022/11/18 08:49:25;;;;;;;1.73;0.80;;;;;;;7.70;100.00;153338.38;4985587;28;20548;-88
2022/11/18 08:52:11;;;;;;;1.00;0.60;;;;;;;7.70;100.00;153337.06;4985185;28;20802;-88
2022/11/18 08:54:58;;;;;;;1.33;0.70;;;;;;;7.74;100.00;153347.38;4991958;28;20417;-88
2022/11/18 08:57:43;;;;;;;1.07;0.73;;;;;;;7.75;100.00;153349.97;4992641;28;20468;-88
2022/11/18 09:00:28;;;;;;;0.93;0.40;;;;;;;7.76;100.00;153352.53;4978302;28;20452;-88
2022/11/18 09:03:13;;;;;;;0.90;0.50;;;;;;;7.74;100.00;153347.38;4987207;28;20441;-89
2022/11/18 09:06:05;;;;;;;1.70;0.47;;;;;;;7.74;100.00;153347.38;4992713;28;21022;-88
2022/11/18 09:08:51;;;;;;;1.00;0.60;;;;;;;7.78;100.00;153357.72;4993231;28;20449;-88
2022/11/18 09:11:38;;;;;;;1.30;0.57;;;;;;;7.77;100.00;153356.44;4973118;28;20437;-88
2022/11/18 09:14:24;;;;;;;2.00;0.80;;;;;;;7.77;100.00;153355.13;4992338;28;20829;-88
2022/11/18 09:17:10;;;;;;;1.40;0.80;;;;;;;7.81;100.00;153365.50;4970170;28;20500;-88
2022/11/18 09:19:55;;;;;;;1.70;0.73;;;;;;;7.83;100.00;153370.66;4991943;28;20520;-88
2022/11/18 09:22:40;;;;;;;2.30;1.23;;;;;;;7.85;100.00;153377.09;4992811;28;20503;-88
2022/11/18 09:25:25;;;;;;;2.27;1.13;;;;;;;7.88;100.00;153383.56;4993426;28;20408;-88
2022/11/18 09:28:12;;;;;;;1.53;1.17;;;;;;;7.90;100.00;153388.72;4982876;28;20537;-88
2022/11/18 09:30:57;;;;;;;1.87;1.13;;;;;;;7.90;100.00;153390.03;4980637;28;20461;-88
2022/11/18 09:33:43;;;;;;;2.37;1.30;;;;;;;7.90;100.00;153388.72;4992270;28;20480;-88
2022/11/18 09:36:29;;;;;;;1.30;0.90;;;;;;;7.91;100.00;153392.63;4992366;28;20518;-88
2022/11/18 09:39:14;;;;;;;1.90;0.70;;;;;;;7.91;100.00;153391.31;4990290;28;20456;-88
2022/11/18 09:42:11;;;;;;;1.27;0.80;;;;;;;7.93;100.00;153396.47;4992296;28;20452;-89
2022/11/18 09:45:08;;;;;;;1.20;0.60;;;;;;;7.95;100.00;153401.63;4984161;28;20452;-88
2022/11/18 09:47:57;;;;;;;1.07;0.57;;;;;;;7.97;100.00;153406.78;4985196;28;20433;-89
2022/11/18 09:50:42;;;;;;;1.20;0.83;;;;;;;8.01;100.00;153415.84;4991992;28;21007;-89
2022/11/18 09:53:27;;;;;;;1.53;1.00;;;;;;;7.99;100.00;153412.00;4992584;28;20536;-88
2022/11/18 09:56:15;;;;;;;1.53;0.80;;;;;;;8.04;100.00;153424.91;4986047;28;20457;-88
2022/11/18 09:59:01;;;;;;;1.40;0.87;;;;;;;8.06;100.00;153430.06;4992017;28;20484;-88
2022/11/18 10:01:48;;;;;;;1.20;0.80;;;;;;;8.07;100.00;153432.66;4994174;28;20432;-88
2022/11/18 10:04:34;;;;;;;2.30;0.90;;;;;;;8.10;100.00;153440.38;4987091;28;20532;-88
2022/11/18 10:07:22;;;;;;;1.80;1.13;;;;;;;8.11;100.00;153443.00;4974842;28;20457;-88
2022/11/18 10:10:13;;;;;;;4.67;2.07;;;;;;;8.11;100.00;153443.00;4988463;28;20612;-88
2022/11/18 10:13:04;;;;;;;10.97;6.67;;;;;;;8.15;100.00;153453.34;4993440;28;20507;-88
2022/11/18 10:15:55;;;;;;;12.67;10.10;;;;;;;8.20;100.00;153466.28;4989685;28;20461;-88
2022/11/18 10:18:48;;;;;;;7.90;6.10;;;;;;;8.26;100.00;153480.50;4989979;28;20569;-89
2022/11/18 10:21:40;;;;;;;16.37;13.67;;;;;;;8.29;100.00;153488.25;4995611;28;20453;-89
2022/11/18 10:24:28;;;;;;;11.30;9.10;;;;;;;8.30;100.00;153490.84;4990161;28;20541;-88
2022/11/18 10:27:15;;;;;;;8.43;6.47;;;;;;;8.30;100.00;153492.16;4989964;28;20459;-88
2022/11/18 10:30:01;;;;;;;4.53;3.53;;;;;;;8.31;100.00;153493.47;4980297;28;20448;-88
2022/11/18 10:32:54;;;;;;;3.70;2.40;;;;;;;8.35;100.00;153505.06;4991746;28;20611;-77
2022/11/18 10:35:41;;;;;;;6.33;2.63;;;;;;;8.38;100.00;153512.84;4994834;28;20977;-77
2022/11/18 10:38:26;;;;;;;3.80;1.87;;;;;;;8.40;100.00;153516.69;4992730;28;20441;-77
2022/11/18 10:41:14;;;;;;;2.70;1.70;;;;;;;8.42;100.00;153521.84;4991523;28;20783;-77
2022/11/18 10:44:00;;;;;;;1.43;1.17;;;;;;;8.47;100.00;153536.06;4994915;28;20613;-77
2022/11/18 10:46:45;;;;;;;1.70;1.20;;;;;;;8.56;100.00;153559.38;4993011;28;20452;-77
2022/11/18 10:49:38;;;;;;;1.53;1.10;;;;;;;8.69;100.00;153590.38;4994412;28;20453;-77
2022/11/18 10:52:25;;;;;;;1.90;1.40;;;;;;;8.80;100.00;153620.13;4995742;28;20437;-77
2022/11/18 10:55:22;;;;;;;2.40;1.33;;;;;;;8.89;100.00;153642.13;4988583;28;20444;-77
2022/11/18 10:58:10;;;;;;;1.60;1.40;;;;;;;8.92;100.00;153649.88;4986556;28;20851;-77
2022/11/18 11:01:05;;;;;;;1.80;1.43;;;;;;;8.92;100.00;153651.13;4989621;28;20478;-77
2022/11/18 11:03:58;;;;;;;3.00;2.10;;;;;;;8.93;100.00;153652.44;4974485;28;20457;-77
2022/11/18 11:06:44;;;;;;;2.13;1.40;;;;;;;8.93;100.00;153652.44;4990095;28;20461;-77
2022/11/18 11:09:30;;;;;;;1.90;1.43;;;;;;;8.91;100.00;153647.28;4992111;28;20536;-77
2022/11/18 11:12:17;;;;;;;2.10;1.50;;;;;;;8.88;100.00;153640.81;4977001;28;20461;-77
2022/11/18 11:15:05;;;;;;;2.43;1.20;;;;;;;8.86;100.00;153634.34;4988834;28;20452;-77
2022/11/18 11:18:40;;;;;;;3.73;1.40;;;;;;;8.90;100.00;153644.66;4989886;28;20549;-77
2022/11/18 11:20:58;;;;;;;2.00;1.30;;;;;;;8.95;100.00;153658.91;4994410;28;20845;-77
2022/11/18 11:23:44;;;;;;;2.30;1.70;;;;;;;8.98;100.00;153665.34;4995229;28;20571;-77
2022/11/18 11:26:35;;;;;;;2.57;2.00;;;;;;;8.99;100.00;153667.97;4992343;28;20947;-77
2022/11/18 11:29:35;;;;;;;2.33;1.73;;;;;;;8.98;100.00;153665.34;4975647;28;20433;-78
2022/11/18 11:32:27;;;;;;;1.40;1.00;;;;;;;8.91;100.00;153648.56;4980237;28;20864;-77
2022/11/18 11:35:18;;;;;;;1.63;1.00;;;;;;;8.92;100.00;153649.88;4988512;28;20441;-77
2022/11/18 11:38:07;;;;;;;1.07;0.70;;;;;;;8.87;100.00;153636.94;4995218;28;20987;-77
2022/11/18 11:40:59;;;;;;;2.20;1.47;;;;;;;8.96;100.00;153661.50;4994221;28;20449;-77
2022/11/18 11:44:00;;;;;;;1.93;0.77;;;;;;;9.04;100.00;153680.88;4991921;28;20835;-77
2022/11/18 11:49:54;;;;;;;1.23;0.97;;;;;;;9.18;100.00;153717.13;4985290;28;20459;-77
2022/11/18 11:52:43;;;;;;;1.80;1.00;;;;;;;9.22;100.00;153727.44;4985564;28;20463;-77
2022/11/18 11:55:33;;;;;;;1.70;1.10;;;;;;;9.17;100.00;153715.81;4986199;28;20886;-77
2022/11/18 11:58:27;;;;;;;1.30;1.10;;;;;;;9.20;100.00;153722.28;4994693;28;20488;-77
2022/11/18 12:01:19;;;;;;;1.80;0.77;;;;;;;9.15;100.00;153710.66;4981719;28;20947;-77
2022/11/18 12:04:16;;;;;;;2.83;0.83;;;;;;;9.14;100.00;153708.03;4991607;28;20453;-77
2022/11/18 12:07:03;;;;;;;1.30;1.10;;;;;;;9.15;100.00;153709.34;4986738;28;20936;-77
2022/11/18 12:10:06;;;;;;;1.70;0.87;;;;;;;9.16;100.00;153713.22;4992003;28;20931;-77
2022/11/18 12:12:54;;;;;;;3.43;1.60;;;;;;;9.17;100.00;153714.50;4989720;28;20488;-77
2022/11/18 12:15:48;;;;;;;1.50;0.83;;;;;;;9.06;100.00;153687.34;4994258;28;20920;-77
2022/11/18 12:18:38;;;;;;;1.50;0.80;;;;;;;8.98;100.00;153665.34;4992869;28;20987;-77
2022/11/18 12:21:59;;;;;;;3.13;0.83;;;;;;;8.99;100.00;153667.97;4992437;28;20445;-77
2022/11/18 12:24:44;;;;;;;1.23;0.90;;;;;;;8.94;100.00;153656.34;4976729;28;20956;-77
2022/11/18 12:27:55;;;;;;;1.00;0.60;;;;;;;8.87;100.00;153636.94;4978241;28;20987;-77
2022/11/18 12:30:40;;;;;;;1.80;0.80;;;;;;;8.83;100.00;153626.59;4991545;28;21026;-77
2022/11/18 12:33:25;;;;;;;2.10;1.10;;;;;;;8.80;100.00;153618.81;4992358;28;20481;-77
2022/11/18 12:36:25;;;;;;;1.77;0.97;;;;;;;8.69;100.00;153590.38;4978922;28;20452;-77
2022/11/18 12:39:53;;;;;;;3.13;1.07;;;;;;;8.63;100.00;153574.88;4992343;28;20568;-77
2022/11/18 12:45:57;;;;;;;1.67;1.07;;;;;;;8.58;100.00;153563.22;4974613;28;20481;-77
2022/11/18 12:48:42;;;;;;;2.10;0.90;;;;;;;8.57;100.00;153561.97;4975867;28;20807;-78
2022/11/18 12:51:50;;;;;;;1.70;1.00;;;;;;;8.57;100.00;153560.66;4985009;28;21023;-77
2022/11/18 12:54:38;;;;;;;1.30;0.90;;;;;;;8.51;100.00;153545.13;4977120;28;20999;-77
2022/11/18 12:57:26;;;;;;;2.17;0.87;;;;;;;8.52;100.00;153549.00;4988657;28;20502;-77
2022/11/18 13:00:27;;;;;;;1.50;1.00;;;;;;;8.51;100.00;153545.13;4988239;28;20492;-77
2022/11/18 13:03:12;;;;;;;1.67;1.10;;;;;;;8.50;100.00;153543.84;4988073;28;20440;-77
2022/11/18 13:06:01;;;;;;;1.40;1.00;;;;;;;8.54;100.00;153552.91;4990690;28;20471;-77
2022/11/18 13:08:55;;;;;;;1.57;1.10;;;;;;;8.50;100.00;153543.84;4993198;28;20975;-77
2022/11/18 13:11:44;;;;;;;1.40;1.00;;;;;;;8.51;100.00;153546.44;4993331;28;21067;-77
2022/11/18 13:17:53;;;;;;;3.00;1.33;;;;;;;8.64;100.00;153577.44;4989354;28;20509;-77
2022/11/18 13:20:40;;;;;;;1.23;1.03;;;;;;;8.66;100.00;153583.91;4988417;28;20794;-78